Time;durP1;ratioP1;P1;durP2;ratioP2;P2;SDS_P1;SDS_P2;PMS_P1;PMS_P2;Temp;Humidity;BMP_temperature;BMP_pressure;BME280_temperature;BME280_humidity;BME280_pressure;Samples;Min_cycle;Max_cycle;Signal;HPM_P1;HPM_P2
2022/03/24 00:00:40;;;;;;;62.25;26.75;;;;;;;5.64;63.98;102672.69;4988914;28;20752;-70
2022/03/24 00:03:06;;;;;;;58.78;26.80;;;;;;;5.61;64.10;102670.28;4991162;28;20030;-70
2022/03/24 00:05:32;;;;;;;58.17;27.30;;;;;;;5.60;64.01;102665.22;4992784;28;20061;-70
2022/03/24 00:07:57;;;;;;;61.50;27.13;;;;;;;5.57;64.17;102671.31;5011577;28;20075;-70
2022/03/24 00:10:23;;;;;;;61.00;26.48;;;;;;;5.54;63.98;102670.63;4985283;28;20115;-70
2022/03/24 00:12:51;;;;;;;58.95;26.10;;;;;;;5.51;64.41;102663.09;5005125;28;20037;-70
2022/03/24 00:15:17;;;;;;;54.08;26.02;;;;;;;5.48;64.54;102658.91;4983556;28;20048;-70
2022/03/24 00:17:42;;;;;;;62.53;25.35;;;;;;;5.44;64.45;102663.41;4994376;28;20473;-70
2022/03/24 00:20:08;;;;;;;56.88;25.75;;;;;;;5.41;64.66;102660.97;5003397;28;20025;-70
2022/03/24 00:22:34;;;;;;;56.60;26.40;;;;;;;5.40;65.25;102661.06;5004100;28;20030;-70
2022/03/24 00:24:59;;;;;;;55.15;25.55;;;;;;;5.38;65.02;102655.97;4991462;28;20026;-70
2022/03/24 00:27:25;;;;;;;52.40;24.95;;;;;;;5.36;65.29;102656.97;5000044;28;20089;-69
2022/03/24 00:29:51;;;;;;;51.13;25.20;;;;;;;5.34;65.59;102656.22;5006467;28;20038;-70
2022/03/24 00:32:17;;;;;;;55.53;26.08;;;;;;;5.30;65.78;102658.13;4987086;28;20088;-70
2022/03/24 00:34:45;;;;;;;53.58;25.20;;;;;;;5.28;65.84;102659.09;5001705;28;20044;-70
2022/03/24 00:37:10;;;;;;;54.50;25.90;;;;;;;5.21;66.31;102661.97;4987180;28;20057;-70
2022/03/24 00:39:39;;;;;;;52.92;26.08;;;;;;;5.02;66.13;102654.31;4992180;28;20041;-70
2022/03/24 00:42:11;;;;;;;54.50;25.65;;;;;;;4.87;67.48;102663.59;4971854;28;20026;-70
2022/03/24 00:44:44;;;;;;;58.50;26.08;;;;;;;4.76;67.99;102662.44;4985446;28;21029;-70
2022/03/24 00:47:11;;;;;;;51.83;24.95;;;;;;;4.68;68.90;102663.63;4990043;28;20483;-70
2022/03/24 00:49:39;;;;;;;55.40;24.58;;;;;;;4.70;68.95;102660.16;4995900;28;20120;-70
2022/03/24 00:52:05;;;;;;;48.92;24.05;;;;;;;4.74;69.22;102656.53;4991828;28;20040;-69
2022/03/24 00:54:31;;;;;;;51.47;24.92;;;;;;;4.76;69.00;102649.59;5000819;28;20038;-70
2022/03/24 00:56:57;;;;;;;56.15;25.02;;;;;;;4.79;68.88;102650.28;4977410;28;20026;-70
2022/03/24 00:59:23;;;;;;;50.63;25.27;;;;;;;4.81;68.82;102645.91;4988834;28;20623;-70
2022/03/24 01:01:49;;;;;;;56.90;25.42;;;;;;;4.81;68.71;102650.22;4984262;28;20480;-69
2022/03/24 01:04:15;;;;;;;57.28;26.92;;;;;;;4.80;68.51;102651.97;4970860;28;20108;-69
2022/03/24 01:06:41;;;;;;;56.15;25.67;;;;;;;4.82;68.60;102639.00;4985438;28;20416;-69
2022/03/24 01:09:07;;;;;;;55.60;25.95;;;;;;;4.81;68.90;102645.91;4990653;28;20026;-70
2022/03/24 01:11:32;;;;;;;61.88;27.02;;;;;;;4.80;69.03;102653.69;4994407;28;20265;-70
2022/03/24 01:14:01;;;;;;;53.58;26.27;;;;;;;4.79;68.88;102647.72;4986935;28;20038;-70
2022/03/24 01:16:27;;;;;;;47.95;25.10;;;;;;;4.79;69.06;102644.31;4993061;28;20034;-70
2022/03/24 01:18:53;;;;;;;47.60;24.60;;;;;;;4.78;68.86;102647.78;4977464;28;20042;-69
2022/03/24 01:21:18;;;;;;;61.17;28.08;;;;;;;4.75;69.09;102646.19;4971925;28;20030;-70
2022/03/24 01:23:45;;;;;;;54.53;26.08;;;;;;;4.68;68.47;102637.09;4991064;23;20442;-69
2022/03/24 01:26:13;;;;;;;54.58;26.98;;;;;;;4.59;68.42;102643.50;4965464;28;20046;-69
2022/03/24 01:28:40;;;;;;;49.10;25.55;;;;;;;4.49;68.30;102650.00;4981865;28;20038;-69
2022/03/24 01:31:08;;;;;;;55.72;27.20;;;;;;;4.41;68.39;102642.63;4983046;28;20034;-70
2022/03/24 01:33:38;;;;;;;55.13;27.25;;;;;;;4.34;68.89;102638.69;4981026;28;20041;-70
2022/03/24 01:36:11;;;;;;;57.78;28.95;;;;;;;4.28;68.84;102642.38;4969151;28;20684;-69
2022/03/24 01:38:37;;;;;;;57.88;26.70;;;;;;;4.20;68.85;102636.75;4955721;28;20054;-70
2022/03/24 01:41:03;;;;;;;58.92;26.67;;;;;;;4.16;69.40;102636.94;4973382;28;20121;-70
2022/03/24 01:43:29;;;;;;;56.58;27.20;;;;;;;4.14;69.30;102633.63;4974037;28;20031;-70
2022/03/24 01:45:55;;;;;;;63.40;28.75;;;;;;;4.14;69.31;102629.31;4968453;28;20035;-70
2022/03/24 01:48:21;;;;;;;51.10;26.40;;;;;;;4.14;69.57;102637.00;4984201;28;20035;-69
2022/03/24 01:50:46;;;;;;;56.20;26.55;;;;;;;4.11;69.88;102637.16;4971159;28;20640;-69
2022/03/24 01:53:13;;;;;;;55.25;27.08;;;;;;;4.10;69.64;102635.50;4971997;28;20035;-69
2022/03/24 01:55:39;;;;;;;57.38;26.52;;;;;;;4.10;69.91;102633.75;4970742;28;20046;-70
2022/03/24 01:58:05;;;;;;;57.95;27.60;;;;;;;4.10;69.88;102635.50;4955891;28;20026;-69
2022/03/24 02:00:31;;;;;;;53.45;26.98;;;;;;;4.08;69.52;102627.84;4972635;28;20030;-69
2022/03/24 02:03:04;;;;;;;56.35;26.73;;;;;;;4.08;69.51;102632.16;4958727;28;20177;-69
2022/03/24 02:05:33;;;;;;;58.10;27.58;;;;;;;4.06;69.99;102631.41;4966960;28;20404;-69
2022/03/24 02:08:03;;;;;;;55.83;26.30;;;;;;;4.00;70.06;102621.41;4949578;28;20041;-70
2022/03/24 02:10:31;;;;;;;54.40;27.20;;;;;;;3.99;70.05;102625.69;4952033;28;20043;-69
2022/03/24 02:12:57;;;;;;;53.95;26.83;;;;;;;3.97;70.46;102622.34;4983796;28;20137;-70
2022/03/24 02:15:24;;;;;;;59.97;28.35;;;;;;;3.95;70.74;102624.16;4951711;28;20560;-69
2022/03/24 02:17:50;;;;;;;58.00;26.65;;;;;;;3.93;71.01;102620.84;4948464;28;20027;-70
2022/03/24 02:20:16;;;;;;;55.15;27.27;;;;;;;3.90;70.70;102623.56;4951220;28;20687;-70
2022/03/24 02:22:42;;;;;;;64.20;28.70;;;;;;;3.88;70.68;102618.47;4983239;28;20045;-69
2022/03/24 02:25:09;;;;;;;57.33;27.75;;;;;;;3.88;71.19;102631.31;4968366;28;20034;-69
2022/03/24 02:27:36;;;;;;;54.58;27.30;;;;;;;3.87;71.23;102621.13;4982318;28;20039;-69
2022/03/24 02:30:03;;;;;;;55.97;28.95;;;;;;;3.86;71.40;102620.28;4969280;28;20030;-69
2022/03/24 02:32:30;;;;;;;58.05;29.13;;;;;;;3.84;71.24;102616.09;4966767;28;20147;-69
2022/03/24 02:34:55;;;;;;;62.25;27.95;;;;;;;3.80;71.34;102620.53;4963143;28;20540;-70
2022/03/24 02:37:25;;;;;;;61.50;28.67;;;;;;;3.81;71.14;102623.97;4964681;28;20031;-69
2022/03/24 02:39:54;;;;;;;58.78;29.00;;;;;;;3.71;71.40;102623.50;4965850;28;20030;-70
2022/03/24 02:42:21;;;;;;;67.15;29.52;;;;;;;3.66;71.38;102628.84;4944233;28;20125;-70
2022/03/24 02:44:53;;;;;;;58.60;29.23;;;;;;;3.63;72.20;102623.84;4969894;28;20038;-70
2022/03/24 02:47:18;;;;;;;58.67;28.17;;;;;;;3.61;72.15;102625.63;4960034;28;20486;-69
2022/03/24 02:49:47;;;;;;;58.15;29.20;;;;;;;3.59;72.41;102619.75;4971638;28;20122;-69
2022/03/24 02:52:14;;;;;;;54.83;26.70;;;;;;;3.58;72.55;102627.50;4973967;28;20030;-69
2022/03/24 02:54:40;;;;;;;57.15;28.17;;;;;;;3.51;72.95;102619.25;4961238;28;20039;-69
2022/03/24 02:57:06;;;;;;;71.88;29.70;;;;;;;3.48;72.96;102624.50;4974321;28;20497;-70
2022/03/24 02:59:33;;;;;;;63.45;29.02;;;;;;;3.46;73.02;102616.03;4976408;28;20522;-70
2022/03/24 03:02:01;;;;;;;59.83;28.60;;;;;;;3.45;73.04;102622.09;4967702;28;20032;-70
2022/03/24 03:04:29;;;;;;;58.72;28.92;;;;;;;3.44;73.03;102617.84;4982316;28;20039;-70
2022/03/24 03:06:55;;;;;;;62.58;29.25;;;;;;;3.42;73.09;102627.34;4965730;28;20102;-70
2022/03/24 03:09:23;;;;;;;63.83;28.30;;;;;;;3.39;73.26;102623.19;4981860;28;20034;-70
2022/03/24 03:11:51;;;;;;;57.55;26.27;;;;;;;3.33;73.19;102625.16;4932013;28;20026;-70
2022/03/24 03:14:18;;;;;;;57.13;26.10;;;;;;;3.23;73.60;102628.09;4955078;28;20135;-70
2022/03/24 03:16:45;;;;;;;57.40;25.88;;;;;;;3.18;73.91;102632.56;4956250;28;20038;-70
2022/03/24 03:19:12;;;;;;;56.97;26.33;;;;;;;3.13;73.93;102629.38;4967876;28;20369;-70
2022/03/24 03:21:39;;;;;;;56.95;27.40;;;;;;;3.06;74.29;102621.09;4973583;28;20039;-70
2022/03/24 03:24:06;;;;;;;51.75;25.27;;;;;;;2.99;74.40;102627.38;4981477;28;20113;-70
2022/03/24 03:26:31;;;;;;;52.05;25.00;;;;;;;2.97;74.66;102626.59;4969686;28;20082;-69
2022/03/24 03:28:57;;;;;;;62.55;25.83;;;;;;;2.97;74.61;102625.78;4969272;28;20031;-70
2022/03/24 03:31:23;;;;;;;56.15;26.42;;;;;;;2.97;74.88;102629.16;4964439;28;20134;-70
2022/03/24 03:33:51;;;;;;;56.05;25.90;;;;;;;2.96;75.09;102622.38;4966235;28;20553;-70
2022/03/24 03:36:18;;;;;;;55.13;26.45;;;;;;;2.94;75.10;102624.19;4969377;28;20035;-70
2022/03/24 03:38:45;;;;;;;63.85;27.95;;;;;;;2.92;75.37;102629.34;4969386;28;20030;-70
2022/03/24 03:41:12;;;;;;;54.25;27.25;;;;;;;2.90;75.46;102625.16;4979944;28;20122;-70
2022/03/24 03:43:37;;;;;;;60.95;27.17;;;;;;;2.88;75.41;102625.25;4981544;28;20031;-70
2022/03/24 03:46:03;;;;;;;58.50;28.00;;;;;;;2.84;75.47;102628.81;4963009;28;20073;-70
2022/03/24 03:48:30;;;;;;;59.95;29.55;;;;;;;2.81;75.26;102636.63;4978499;28;20081;-70
2022/03/24 03:50:56;;;;;;;60.10;29.42;;;;;;;2.78;75.34;102625.66;4962362;28;20109;-70
2022/03/24 03:53:23;;;;;;;62.00;29.23;;;;;;;2.76;75.38;102630.84;4966045;28;20027;-70
2022/03/24 03:55:49;;;;;;;68.45;30.17;;;;;;;2.77;74.81;102631.69;4950724;28;20035;-69
2022/03/24 03:58:15;;;;;;;62.88;29.35;;;;;;;2.76;75.25;102635.97;4945192;28;20035;-70
2022/03/24 04:00:53;;;;;;;63.53;28.50;;;;;;;2.73;75.06;102634.38;4969696;28;20031;-70
2022/03/24 04:03:39;;;;;;;57.22;27.83;;;;;;;2.64;75.11;102631.34;4965613;28;20062;-69
2022/03/24 04:06:10;;;;;;;52.50;26.35;;;;;;;2.52;75.50;102630.06;4962545;28;20046;-70
2022/03/24 04:08:37;;;;;;;52.40;26.50;;;;;;;2.43;75.88;102633.84;4969033;28;20039;-70
2022/03/24 04:11:03;;;;;;;54.70;26.27;;;;;;;2.37;76.15;102638.34;4965517;28;20396;-70
2022/03/24 04:13:29;;;;;;;57.05;27.40;;;;;;;2.32;76.58;102628.28;4967034;28;20059;-70
2022/03/24 04:15:54;;;;;;;54.15;26.17;;;;;;;2.29;77.08;102630.94;4980197;28;20065;-70
2022/03/24 04:18:22;;;;;;;58.47;27.17;;;;;;;2.29;77.22;102638.63;4973108;28;20037;-70
2022/03/24 04:20:48;;;;;;;61.58;27.27;;;;;;;2.30;77.13;102640.31;4947990;28;20184;-70
2022/03/24 04:23:14;;;;;;;60.80;27.75;;;;;;;2.32;77.33;102630.84;4950754;28;20409;-70
2022/03/24 04:25:40;;;;;;;64.40;27.77;;;;;;;2.33;77.05;102638.44;4965443;28;20031;-70
2022/03/24 04:28:06;;;;;;;61.15;28.15;;;;;;;2.32;77.08;102631.66;4952008;28;20061;-70
2022/03/24 04:30:33;;;;;;;59.83;27.40;;;;;;;2.28;77.05;102634.38;4969453;28;20481;-70
2022/03/24 04:32:59;;;;;;;60.08;26.88;;;;;;;2.24;77.21;102633.69;4967241;28;20558;-70
2022/03/24 04:35:25;;;;;;;57.83;27.27;;;;;;;2.24;77.10;102637.97;4967838;28;20026;-70
2022/03/24 04:37:51;;;;;;;54.22;27.00;;;;;;;2.22;77.14;102634.63;4951548;28;20074;-70
2022/03/24 04:40:19;;;;;;;61.70;27.67;;;;;;;2.18;77.34;102633.91;4949632;28;20050;-70
2022/03/24 04:42:50;;;;;;;60.83;28.42;;;;;;;2.16;77.55;102637.41;4968893;28;20061;-70
2022/03/24 04:45:17;;;;;;;60.95;28.42;;;;;;;2.16;77.57;102635.69;4979924;28;20045;-69
2022/03/24 04:47:44;;;;;;;68.10;29.50;;;;;;;2.17;77.46;102636.50;4967406;28;20611;-70
2022/03/24 04:50:11;;;;;;;62.22;28.48;;;;;;;2.16;77.63;102639.97;4966348;28;20393;-70
2022/03/24 04:52:36;;;;;;;63.22;27.88;;;;;;;2.16;77.36;102645.09;4964857;28;20437;-70
2022/03/24 04:55:03;;;;;;;56.92;27.40;;;;;;;2.11;77.32;102643.53;4966098;28;20097;-70
2022/03/24 04:57:29;;;;;;;60.95;28.23;;;;;;;2.05;77.62;102648.03;4963495;28;20038;-70
2022/03/24 04:59:55;;;;;;;57.20;28.30;;;;;;;1.98;77.80;102657.69;4982275;28;20508;-70
2022/03/24 05:02:20;;;;;;;65.53;26.40;;;;;;;1.90;77.71;102652.84;4968840;28;20026;-70
2022/03/24 05:04:46;;;;;;;62.38;29.65;;;;;;;1.79;78.08;102652.38;4975132;28;20531;-70
2022/03/24 05:07:12;;;;;;;60.65;28.80;;;;;;;1.70;78.42;102662.94;4965512;28;20046;-69
2022/03/24 05:09:39;;;;;;;66.05;29.95;;;;;;;1.62;78.74;102659.78;4949895;28;20058;-70
2022/03/24 05:12:05;;;;;;;58.08;28.08;;;;;;;1.59;79.44;102655.63;4968328;28;20420;-70
2022/03/24 05:14:31;;;;;;;61.13;28.23;;;;;;;1.60;79.79;102652.19;4967496;28;20415;-70
2022/03/24 05:17:01;;;;;;;55.80;26.25;;;;;;;1.64;80.33;102653.75;4971861;28;20042;-70
2022/03/24 05:19:27;;;;;;;69.70;29.75;;;;;;;1.70;79.89;102660.38;4972099;28;20049;-73
2022/03/24 05:21:53;;;;;;;63.00;28.15;;;;;;;1.71;80.09;102652.66;4968298;28;20400;-70
2022/03/24 05:24:19;;;;;;;64.75;29.08;;;;;;;1.71;80.14;102655.19;4971110;28;20070;-70
2022/03/24 05:26:45;;;;;;;59.95;29.48;;;;;;;1.71;79.96;102657.75;4972796;28;20033;-70
2022/03/24 05:29:11;;;;;;;61.85;28.15;;;;;;;1.72;80.18;102664.53;4985706;28;20034;-70
2022/03/24 05:31:37;;;;;;;67.50;28.88;;;;;;;1.72;79.89;102654.31;4950565;28;20035;-70
2022/03/24 05:34:03;;;;;;;59.63;28.80;;;;;;;1.73;80.21;102660.25;4985074;28;20128;-70
2022/03/24 05:36:29;;;;;;;65.22;29.75;;;;;;;1.70;79.96;102652.69;4967695;28;20097;-70
2022/03/24 05:38:55;;;;;;;65.43;27.85;;;;;;;1.69;79.92;102658.69;4957791;28;20586;-70
2022/03/24 05:41:20;;;;;;;59.58;28.08;;;;;;;1.71;80.23;102659.47;4982591;28;20050;-70
2022/03/24 05:44:02;;;;;;;68.65;31.40;;;;;;;1.74;80.42;102657.63;4967228;28;20069;-70
2022/03/24 05:46:33;;;;;;;65.43;29.27;;;;;;;1.72;80.75;102649.19;4977784;28;20109;-70
2022/03/24 05:48:58;;;;;;;63.05;30.15;;;;;;;1.71;80.67;102657.75;4968905;28;20497;-70
2022/03/24 05:51:44;;;;;;;61.67;28.60;;;;;;;1.74;80.55;102660.19;4955089;28;20092;-70
2022/03/24 05:54:10;;;;;;;64.32;28.58;;;;;;;1.77;80.52;102658.41;4970211;28;20038;-70
2022/03/24 05:56:36;;;;;;;72.78;29.65;;;;;;;1.76;80.77;102665.25;4983012;28;20038;-70
2022/03/24 05:59:02;;;;;;;61.70;29.27;;;;;;;1.78;80.85;102665.22;4970418;28;20722;-70
2022/03/24 06:01:28;;;;;;;62.83;29.77;;;;;;;1.80;80.51;102664.25;4984659;28;20248;-70
2022/03/24 06:03:53;;;;;;;65.50;29.77;;;;;;;1.82;80.61;102664.22;4954840;28;20058;-70
2022/03/24 06:06:22;;;;;;;76.45;32.20;;;;;;;1.84;80.66;102660.69;4970884;28;20066;-70
2022/03/24 06:08:51;;;;;;;70.20;30.60;;;;;;;1.86;80.74;102663.22;4955821;28;20036;-71
2022/03/24 06:11:17;;;;;;;70.97;31.95;;;;;;;1.88;80.60;102667.38;4946924;28;20051;-70
2022/03/24 06:13:43;;;;;;;68.70;30.80;;;;;;;1.89;80.25;102666.50;4967888;28;20031;-71
2022/03/24 06:16:09;;;;;;;72.70;31.33;;;;;;;1.92;80.61;102657.88;4952299;28;20433;-70
2022/03/24 06:18:39;;;;;;;73.53;31.35;;;;;;;1.97;80.10;102670.53;4970156;28;20084;-71
2022/03/24 06:21:05;;;;;;;70.95;31.42;;;;;;;2.00;80.68;102671.25;4955920;28;20043;-71
2022/03/24 06:23:31;;;;;;;66.72;31.67;;;;;;;2.05;80.45;102671.91;4952852;28;20042;-70
2022/03/24 06:25:57;;;;;;;65.63;32.00;;;;;;;2.08;79.96;102671.78;4968481;28;20037;-71
2022/03/24 06:28:23;;;;;;;73.40;32.35;;;;;;;2.12;80.38;102670.78;4981724;28;20041;-69
2022/03/24 06:30:48;;;;;;;75.93;31.95;;;;;;;2.16;80.28;102668.97;4969927;28;20221;-69
2022/03/24 06:33:16;;;;;;;66.70;31.77;;;;;;;2.22;80.69;102665.34;4974681;28;20062;-71
2022/03/24 06:35:45;;;;;;;67.15;31.17;;;;;;;2.29;80.36;102672.75;4966133;28;20049;-71
2022/03/24 06:38:11;;;;;;;66.82;31.42;;;;;;;2.38;80.89;102665.63;4954930;28;20037;-71
2022/03/24 06:40:38;;;;;;;66.05;31.27;;;;;;;2.49;80.91;102671.19;4947840;28;20175;-70
2022/03/24 06:43:05;;;;;;;65.75;31.27;;;;;;;2.63;80.48;102676.59;4983365;28;20059;-71
2022/03/24 06:45:31;;;;;;;68.78;32.90;;;;;;;2.82;80.66;102671.59;4949952;28;20540;-70
2022/03/24 06:47:57;;;;;;;72.38;33.33;;;;;;;3.12;80.66;102668.72;4951975;28;20041;-71
2022/03/24 06:50:22;;;;;;;63.03;31.70;;;;;;;3.64;79.69;102673.44;4965921;28;20034;-71
2022/03/24 06:52:48;;;;;;;69.72;32.13;;;;;;;4.40;78.28;102670.97;4967343;28;20033;-70
2022/03/24 06:55:13;;;;;;;66.32;31.05;;;;;;;5.20;75.43;102654.34;4974422;28;20035;-70
2022/03/24 06:57:40;;;;;;;67.40;30.83;;;;;;;5.98;72.24;102658.09;4970525;28;20042;-71
2022/03/24 07:00:06;;;;;;;62.72;29.30;;;;;;;6.74;70.09;102654.03;4967128;28;20045;-70
2022/03/24 07:02:32;;;;;;;64.82;30.60;;;;;;;7.34;67.59;102655.78;4964343;28;20041;-71
2022/03/24 07:04:57;;;;;;;69.18;29.45;;;;;;;7.90;65.23;102661.91;4981440;28;20122;-71
2022/03/24 07:07:25;;;;;;;81.60;30.23;;;;;;;8.19;63.95;102659.28;4964244;28;20513;-71
2022/03/24 07:09:50;;;;;;;80.22;32.78;;;;;;;8.52;62.80;102653.78;4967132;28;20481;-71
2022/03/24 07:12:19;;;;;;;66.15;29.67;;;;;;;8.86;61.65;102659.38;4967639;28;20042;-72
2022/03/24 07:14:45;;;;;;;63.78;30.73;;;;;;;9.27;60.63;102658.44;4971101;28;20026;-71
2022/03/24 07:17:11;;;;;;;75.70;32.67;;;;;;;9.46;59.70;102663.22;4982174;28;20042;-72
2022/03/24 07:19:37;;;;;;;66.47;29.83;;;;;;;9.88;58.76;102656.03;4966488;28;20041;-72
2022/03/24 07:22:03;;;;;;;74.70;31.67;;;;;;;10.09;58.10;102665.84;4970495;28;20026;-72
2022/03/24 07:24:29;;;;;;;66.18;31.08;;;;;;;10.52;57.25;102655.88;5002903;23;20046;-70
2022/03/24 07:26:54;;;;;;;64.97;30.48;;;;;;;10.88;57.50;102671.47;5002136;28;20048;-70
2022/03/24 07:29:20;;;;;;;65.13;30.23;;;;;;;11.17;57.83;102671.94;4999323;28;20034;-70
2022/03/24 07:31:45;;;;;;;69.18;32.15;;;;;;;11.49;55.86;102668.69;5006040;28;20033;-70
2022/03/24 07:34:11;;;;;;;58.42;31.02;;;;;;;12.07;53.25;102669.41;5000979;28;20065;-70
2022/03/24 07:36:37;;;;;;;64.95;31.77;;;;;;;12.07;53.15;102669.41;5003566;28;20037;-70
2022/03/24 07:39:03;;;;;;;60.15;32.78;;;;;;;12.48;52.43;102661.88;5002345;28;20407;-70
2022/03/24 07:41:29;;;;;;;71.10;32.70;;;;;;;12.57;48.97;102663.72;5004572;28;20045;-70
2022/03/24 07:43:55;;;;;;;72.30;33.95;;;;;;;12.78;49.35;102665.53;5005610;28;20017;-71
2022/03/24 07:46:20;;;;;;;64.35;32.13;;;;;;;13.34;48.33;102660.06;5002588;28;20128;-71
2022/03/24 07:48:48;;;;;;;70.47;36.05;;;;;;;13.51;44.94;102656.03;5005325;28;20072;-70
2022/03/24 07:51:14;;;;;;;67.13;33.58;;;;;;;13.63;45.60;102668.00;5024150;28;20033;-71
2022/03/24 07:53:48;;;;;;;62.58;33.83;;;;;;;14.12;44.07;102652.50;5006884;28;20034;-71
2022/03/24 07:56:19;;;;;;;65.85;33.42;;;;;;;14.25;41.31;102659.28;5021974;28;20042;-71
2022/03/24 07:58:45;;;;;;;63.50;31.92;;;;;;;14.26;42.01;102659.16;5025914;28;20048;-73
2022/03/24 08:01:12;;;;;;;67.75;34.65;;;;;;;14.39;41.28;102671.91;5026896;28;20064;-71
2022/03/24 08:03:37;;;;;;;61.95;33.08;;;;;;;14.63;39.21;102660.28;4990675;28;20515;-71
2022/03/24 08:06:03;;;;;;;68.65;32.83;;;;;;;14.88;40.27;102664.97;5019829;28;20033;-71
2022/03/24 08:08:30;;;;;;;72.60;33.90;;;;;;;15.06;39.00;102667.66;5022466;28;20037;-71
2022/03/24 08:10:56;;;;;;;76.90;34.53;;;;;;;15.18;39.20;102670.94;5009439;28;20029;-71
2022/03/24 08:13:23;;;;;;;65.45;32.42;;;;;;;15.60;38.85;102672.34;5006879;28;20056;-71
2022/03/24 08:15:49;;;;;;;68.20;37.05;;;;;;;15.36;38.43;102671.03;5023300;28;20596;-71
2022/03/24 08:18:16;;;;;;;63.22;33.55;;;;;;;15.65;38.42;102673.56;5000123;28;20041;-71
2022/03/24 08:20:43;;;;;;;72.13;35.20;;;;;;;15.49;39.73;102670.72;5027205;28;20059;-71
2022/03/24 08:23:11;;;;;;;63.72;32.63;;;;;;;15.72;38.93;102677.22;5020975;28;20026;-71
2022/03/24 08:25:40;;;;;;;60.88;33.60;;;;;;;16.03;36.43;102679.59;5022621;28;20514;-71
2022/03/24 08:28:06;;;;;;;68.45;33.90;;;;;;;15.90;36.76;102674.72;5018378;28;20084;-71
2022/03/24 08:30:32;;;;;;;58.53;33.22;;;;;;;15.84;37.46;102677.06;5005454;28;20037;-71
2022/03/24 08:32:58;;;;;;;69.13;36.25;;;;;;;15.92;37.79;102671.97;5021805;28;20029;-71
2022/03/24 08:35:23;;;;;;;60.28;32.92;;;;;;;16.05;37.53;102675.03;5007000;28;20041;-71
2022/03/24 08:37:49;;;;;;;65.78;34.83;;;;;;;16.52;36.85;102674.88;5007293;28;20128;-71
2022/03/24 08:40:15;;;;;;;62.95;34.00;;;;;;;16.55;36.58;102671.94;5003292;28;20068;-71
2022/03/24 08:42:42;;;;;;;65.45;35.03;;;;;;;16.81;37.08;102676.41;5024700;28;20021;-71
2022/03/24 08:45:10;;;;;;;65.40;34.05;;;;;;;16.83;35.59;102674.50;5023670;28;20108;-72
2022/03/24 08:47:36;;;;;;;72.13;35.80;;;;;;;16.71;35.49;102671.25;5023084;28;20403;-71
2022/03/24 08:50:07;;;;;;;71.45;34.97;;;;;;;17.00;36.18;102664.13;5023723;28;20036;-71
2022/03/24 08:52:33;;;;;;;65.43;34.08;;;;;;;17.17;36.27;102670.31;5015616;28;20030;-71
2022/03/24 08:54:58;;;;;;;67.20;33.78;;;;;;;17.21;35.97;102669.00;5023493;28;20072;-72
2022/03/24 08:57:28;;;;;;;64.97;36.33;;;;;;;16.84;36.23;102670.06;5022948;28;20033;-71
2022/03/24 09:00:00;;;;;;;66.32;35.72;;;;;;;17.08;35.76;102672.03;5022401;28;20037;-71
2022/03/24 09:02:25;;;;;;;76.57;37.03;;;;;;;17.12;37.06;102671.59;5005135;28;20029;-71
2022/03/24 09:04:51;;;;;;;66.40;40.60;;;;;;;17.18;36.02;102677.19;5006366;28;20092;-71
2022/03/24 09:07:17;;;;;;;74.22;37.95;;;;;;;17.39;35.22;102674.22;4991017;28;20044;-71
2022/03/24 09:09:42;;;;;;;58.78;35.13;;;;;;;17.30;36.53;102674.16;4989208;28;20037;-72
2022/03/24 09:12:12;;;;;;;92.50;61.20;;;;;;;17.36;36.38;102674.50;4988834;28;20033;-71
2022/03/24 09:14:38;;;;;;;71.03;40.20;;;;;;;17.38;35.42;102678.63;5001248;28;20034;-73
2022/03/24 09:17:05;;;;;;;66.30;35.85;;;;;;;17.61;34.98;102676.28;5018656;28;20022;-72
2022/03/24 09:19:30;;;;;;;73.70;39.30;;;;;;;17.17;38.36;102684.22;4998797;28;20479;-71
2022/03/24 09:21:56;;;;;;;65.28;36.33;;;;;;;17.15;39.73;102680.13;5017163;28;20327;-72
2022/03/24 09:24:21;;;;;;;80.72;36.70;;;;;;;17.27;37.68;102677.09;5015886;28;20467;-71
2022/03/24 09:26:47;;;;;;;68.40;36.58;;;;;;;17.32;36.67;102680.06;5000801;28;20124;-71
2022/03/24 09:29:13;;;;;;;65.50;35.40;;;;;;;17.18;36.88;102687.66;5003403;28;20038;-71
2022/03/24 09:31:39;;;;;;;68.10;37.03;;;;;;;17.18;35.79;102678.03;4988737;28;20030;-71
2022/03/24 09:34:05;;;;;;;68.57;37.28;;;;;;;16.86;36.32;102684.69;5000720;28;20088;-72
2022/03/24 09:36:30;;;;;;;66.75;35.38;;;;;;;16.99;35.79;102681.66;5019810;28;21051;-72
2022/03/24 09:38:56;;;;;;;65.32;35.53;;;;;;;16.89;38.19;102675.69;5015698;28;20116;-72
2022/03/24 09:41:26;;;;;;;61.83;35.30;;;;;;;16.87;37.94;102680.25;5015606;28;20033;-72
2022/03/24 09:43:53;;;;;;;70.03;34.92;;;;;;;16.87;37.87;102675.00;5021545;28;20583;-71
2022/03/24 09:46:19;;;;;;;64.72;35.58;;;;;;;16.83;37.70;102676.28;4990715;28;20041;-71
2022/03/24 09:48:45;;;;;;;64.88;35.13;;;;;;;16.54;37.42;102678.16;5017397;28;20065;-71
2022/03/24 09:51:10;;;;;;;60.00;34.28;;;;;;;16.43;37.15;102675.75;5006702;28;20072;-72
2022/03/24 09:53:39;;;;;;;66.28;35.75;;;;;;;16.37;36.97;102680.75;5021198;28;20084;-71
2022/03/24 09:56:05;;;;;;;65.35;34.80;;;;;;;16.23;38.42;102676.88;5020353;28;20065;-71
2022/03/24 09:58:31;;;;;;;66.88;38.08;;;;;;;16.25;37.57;102675.72;5016763;28;20052;-71
2022/03/24 10:00:57;;;;;;;64.13;35.08;;;;;;;16.45;37.49;102675.63;5001195;28;20068;-72
2022/03/24 10:03:22;;;;;;;68.05;35.33;;;;;;;16.44;37.46;102674.78;4981854;28;20026;-72
2022/03/24 10:05:56;;;;;;;60.28;34.05;;;;;;;16.47;37.02;102671.88;4980286;28;20038;-71
2022/03/24 10:08:22;;;;;;;64.10;32.92;;;;;;;16.37;36.46;102673.75;4997294;28;20051;-72
2022/03/24 10:10:48;;;;;;;59.60;33.35;;;;;;;16.59;37.75;102680.31;5013562;28;20411;-71
2022/03/24 10:13:23;;;;;;;63.65;34.78;;;;;;;16.46;36.63;102672.84;5017811;28;20033;-71
2022/03/24 10:15:49;;;;;;;61.67;33.47;;;;;;;16.59;36.38;102671.63;5023559;28;20034;-71
2022/03/24 10:18:17;;;;;;;59.65;31.83;;;;;;;16.38;37.77;102672.75;5004229;28;20036;-71
2022/03/24 10:20:43;;;;;;;61.72;33.65;;;;;;;16.33;37.47;102664.50;5023680;28;20091;-71
2022/03/24 10:23:11;;;;;;;60.28;33.28;;;;;;;16.41;35.91;102669.84;5007256;28;20037;-72
2022/03/24 10:25:42;;;;;;;61.35;32.47;;;;;;;16.38;35.73;102664.91;5004982;28;20076;-71
2022/03/24 10:28:21;;;;;;;56.15;29.95;;;;;;;16.27;35.46;102665.13;4997669;28;20064;-71
2022/03/24 10:30:59;;;;;;;61.53;31.48;;;;;;;16.35;36.36;102666.03;5018957;28;20381;-72
2022/03/24 10:33:33;;;;;;;62.22;30.67;;;;;;;16.47;36.01;102664.00;5018121;28;20044;-72
2022/03/24 10:36:17;;;;;;;57.08;31.75;;;;;;;16.52;35.23;102664.38;5001887;28;20522;-72
2022/03/24 10:38:52;;;;;;;55.78;30.70;;;;;;;16.57;35.56;102665.72;5018049;28;20116;-71
2022/03/24 10:41:23;;;;;;;53.03;28.90;;;;;;;16.66;35.31;102659.59;4999246;28;20472;-71
2022/03/24 10:43:51;;;;;;;55.58;31.20;;;;;;;16.69;34.16;102656.69;5002044;28;20029;-71
2022/03/24 10:46:22;;;;;;;60.10;31.17;;;;;;;16.67;34.05;102662.06;5008726;28;20759;-71
2022/03/24 10:48:50;;;;;;;50.85;30.70;;;;;;;16.42;34.44;102663.63;5024922;28;20112;-71
2022/03/24 10:51:26;;;;;;;52.38;30.50;;;;;;;16.47;35.10;102657.97;5008585;28;20041;-72
2022/03/24 10:54:02;;;;;;;55.47;31.42;;;;;;;16.58;33.34;102655.09;5021440;28;20096;-71
2022/03/24 10:56:31;;;;;;;55.17;31.45;;;;;;;16.63;33.37;102652.03;5008783;28;20125;-72
2022/03/24 10:59:03;;;;;;;57.55;32.83;;;;;;;16.58;34.67;102651.69;5026531;28;20057;-72
2022/03/24 11:01:30;;;;;;;63.45;33.10;;;;;;;16.68;34.42;102653.22;5022430;28;20044;-72
2022/03/24 11:03:56;;;;;;;57.35;30.52;;;;;;;16.80;35.63;102658.22;5023742;28;20064;-72
2022/03/24 11:06:27;;;;;;;52.47;30.95;;;;;;;17.03;35.65;102653.34;5020182;28;20048;-71
2022/03/24 11:08:56;;;;;;;62.78;33.60;;;;;;;16.85;34.57;102654.19;5019126;28;20033;-72
2022/03/24 11:11:22;;;;;;;59.53;30.55;;;;;;;16.93;34.29;102646.41;4991296;28;21753;-71
2022/03/24 11:13:52;;;;;;;62.30;32.35;;;;;;;16.70;33.55;102647.84;5007778;28;20579;-72